sensor_id;sensor_type;location;lat;lon;timestamp;pressure;altitude;pressure_sealevel;temperature
20848;BMP180;10584;50.854;12.902;2023-09-30T00:02:42;98641.00;;;18.40
20848;BMP180;10584;50.854;12.902;2023-09-30T00:08:21;98655.00;;;18.20
20848;BMP180;10584;50.854;12.902;2023-09-30T00:13:52;98663.00;;;17.90
20848;BMP180;10584;50.854;12.902;2023-09-30T00:19:14;98668.00;;;17.50
20848;BMP180;10584;50.854;12.902;2023-09-30T00:24:42;98672.00;;;17.40
20848;BMP180;10584;50.854;12.902;2023-09-30T00:30:04;98681.00;;;17.20
20848;BMP180;10584;50.854;12.902;2023-09-30T00:35:28;98695.00;;;16.90
20848;BMP180;10584;50.854;12.902;2023-09-30T00:40:57;98692.00;;;16.60
20848;BMP180;10584;50.854;12.902;2023-09-30T00:46:46;98712.00;;;16.50
20848;BMP180;10584;50.854;12.902;2023-09-30T00:52:49;98703.00;;;16.30
20848;BMP180;10584;50.854;12.902;2023-09-30T00:58:18;98709.00;;;16.10
20848;BMP180;10584;50.854;12.902;2023-09-30T01:04:00;98725.00;;;15.80
20848;BMP180;10584;50.854;12.902;2023-09-30T01:09:54;98718.00;;;15.40
20848;BMP180;10584;50.854;12.902;2023-09-30T01:15:40;98721.00;;;15.30
20848;BMP180;10584;50.854;12.902;2023-09-30T01:21:15;98719.00;;;15.10
20848;BMP180;10584;50.854;12.902;2023-09-30T01:27:09;98730.00;;;15.10
20848;BMP180;10584;50.854;12.902;2023-09-30T01:32:52;98731.00;;;15.00
20848;BMP180;10584;50.854;12.902;2023-09-30T01:38:28;98739.00;;;15.00
20848;BMP180;10584;50.854;12.902;2023-09-30T01:43:59;98746.00;;;15.00
20848;BMP180;10584;50.854;12.902;2023-09-30T01:49:28;98753.00;;;15.00
20848;BMP180;10584;50.854;12.902;2023-09-30T01:54:49;98752.00;;;15.00
20848;BMP180;10584;50.854;12.902;2023-09-30T02:00:11;98772.00;;;15.00
20848;BMP180;10584;50.854;12.902;2023-09-30T02:05:44;98769.00;;;14.90
20848;BMP180;10584;50.854;12.902;2023-09-30T02:11:28;98781.00;;;14.90
20848;BMP180;10584;50.854;12.902;2023-09-30T02:17:04;98794.00;;;14.90
20848;BMP180;10584;50.854;12.902;2023-09-30T02:22:39;98783.00;;;14.90
20848;BMP180;10584;50.854;12.902;2023-09-30T02:28:15;98818.00;;;14.70
20848;BMP180;10584;50.854;12.902;2023-09-30T02:33:56;98811.00;;;14.60
20848;BMP180;10584;50.854;12.902;2023-09-30T02:39:24;98810.00;;;14.40
20848;BMP180;10584;50.854;12.902;2023-09-30T02:44:46;98812.00;;;14.30
20848;BMP180;10584;50.854;12.902;2023-09-30T02:50:09;98825.00;;;14.40
20848;BMP180;10584;50.854;12.902;2023-09-30T02:55:34;98827.00;;;14.20
20848;BMP180;10584;50.854;12.902;2023-09-30T03:00:56;98834.00;;;14.30
20848;BMP180;10584;50.854;12.902;2023-09-30T03:06:34;98849.00;;;14.40
20848;BMP180;10584;50.854;12.902;2023-09-30T03:12:20;98852.00;;;14.40
20848;BMP180;10584;50.854;12.902;2023-09-30T03:18:02;98855.00;;;14.40
20848;BMP180;10584;50.854;12.902;2023-09-30T03:23:36;98876.00;;;14.40
20848;BMP180;10584;50.854;12.902;2023-09-30T03:29:01;98895.00;;;14.40
20848;BMP180;10584;50.854;12.902;2023-09-30T03:34:29;98901.00;;;14.00
20848;BMP180;10584;50.854;12.902;2023-09-30T03:39:56;98893.00;;;14.00
20848;BMP180;10584;50.854;12.902;2023-09-30T03:45:18;98893.00;;;13.90
20848;BMP180;10584;50.854;12.902;2023-09-30T03:50:40;98899.00;;;14.00
20848;BMP180;10584;50.854;12.902;2023-09-30T03:56:10;98911.00;;;13.80
20848;BMP180;10584;50.854;12.902;2023-09-30T04:02:06;98931.00;;;14.00
20848;BMP180;10584;50.854;12.902;2023-09-30T04:08:03;98925.00;;;13.90
20848;BMP180;10584;50.854;12.902;2023-09-30T04:13:36;98935.00;;;13.90
20848;BMP180;10584;50.854;12.902;2023-09-30T04:19:00;98932.00;;;13.80
20848;BMP180;10584;50.854;12.902;2023-09-30T04:24:27;98936.00;;;14.00
20848;BMP180;10584;50.854;12.902;2023-09-30T04:29:51;98943.00;;;13.80
20848;BMP180;10584;50.854;12.902;2023-09-30T04:35:12;98940.00;;;13.70
20848;BMP180;10584;50.854;12.902;2023-09-30T04:40:34;98940.00;;;13.60
20848;BMP180;10584;50.854;12.902;2023-09-30T04:46:00;98945.00;;;13.50
20848;BMP180;10584;50.854;12.902;2023-09-30T04:51:53;98943.00;;;13.50
20848;BMP180;10584;50.854;12.902;2023-09-30T04:57:53;98946.00;;;13.50
20848;BMP180;10584;50.854;12.902;2023-09-30T05:03:35;98941.00;;;13.60
20848;BMP180;10584;50.854;12.902;2023-09-30T05:09:07;98943.00;;;13.70
20848;BMP180;10584;50.854;12.902;2023-09-30T05:14:29;98947.00;;;13.60
20848;BMP180;10584;50.854;12.902;2023-09-30T05:19:50;98943.00;;;13.50
20848;BMP180;10584;50.854;12.902;2023-09-30T05:25:16;98938.00;;;13.60
20848;BMP180;10584;50.854;12.902;2023-09-30T05:30:39;98951.00;;;13.50
20848;BMP180;10584;50.854;12.902;2023-09-30T05:36:10;98951.00;;;13.50
20848;BMP180;10584;50.854;12.902;2023-09-30T05:42:04;98958.00;;;13.40
20848;BMP180;10584;50.854;12.902;2023-09-30T05:47:42;98965.00;;;13.30
20848;BMP180;10584;50.854;12.902;2023-09-30T05:53:22;98973.00;;;13.20
20848;BMP180;10584;50.854;12.902;2023-09-30T05:59:01;98984.00;;;13.10
20848;BMP180;10584;50.854;12.902;2023-09-30T06:04:41;98998.00;;;13.20
20848;BMP180;10584;50.854;12.902;2023-09-30T06:10:13;99007.00;;;13.20
20848;BMP180;10584;50.854;12.902;2023-09-30T06:15:42;99028.00;;;13.00
20848;BMP180;10584;50.854;12.902;2023-09-30T06:21:19;99018.00;;;13.10
20848;BMP180;10584;50.854;12.902;2023-09-30T06:26:55;99038.00;;;13.10
20848;BMP180;10584;50.854;12.902;2023-09-30T06:32:44;99019.00;;;13.00
20848;BMP180;10584;50.854;12.902;2023-09-30T06:38:35;99022.00;;;13.10
20848;BMP180;10584;50.854;12.902;2023-09-30T06:44:18;99021.00;;;13.20
20848;BMP180;10584;50.854;12.902;2023-09-30T06:49:45;99025.00;;;13.20
20848;BMP180;10584;50.854;12.902;2023-09-30T06:55:08;99043.00;;;13.30
20848;BMP180;10584;50.854;12.902;2023-09-30T07:00:30;99037.00;;;13.40
20848;BMP180;10584;50.854;12.902;2023-09-30T07:05:58;99039.00;;;13.40
20848;BMP180;10584;50.854;12.902;2023-09-30T07:11:42;99055.00;;;13.40
20848;BMP180;10584;50.854;12.902;2023-09-30T07:17:11;99049.00;;;13.50
20848;BMP180;10584;50.854;12.902;2023-09-30T07:22:50;99048.00;;;13.40
20848;BMP180;10584;50.854;12.902;2023-09-30T07:28:45;99054.00;;;13.50
20848;BMP180;10584;50.854;12.902;2023-09-30T07:34:17;99049.00;;;13.60
20848;BMP180;10584;50.854;12.902;2023-09-30T07:39:44;99054.00;;;13.70
20848;BMP180;10584;50.854;12.902;2023-09-30T07:45:07;99051.00;;;13.70
20848;BMP180;10584;50.854;12.902;2023-09-30T07:50:28;99059.00;;;13.80
20848;BMP180;10584;50.854;12.902;2023-09-30T07:55:50;99070.00;;;13.90
20848;BMP180;10584;50.854;12.902;2023-09-30T08:01:25;99069.00;;;14.00
20848;BMP180;10584;50.854;12.902;2023-09-30T08:07:06;99068.00;;;14.00
20848;BMP180;10584;50.854;12.902;2023-09-30T08:12:48;99079.00;;;14.20
20848;BMP180;10584;50.854;12.902;2023-09-30T08:18:24;99078.00;;;14.30
20848;BMP180;10584;50.854;12.902;2023-09-30T08:24:09;99082.00;;;14.30
20848;BMP180;10584;50.854;12.902;2023-09-30T08:29:36;99082.00;;;14.40
20848;BMP180;10584;50.854;12.902;2023-09-30T08:34:57;99090.00;;;14.50
20848;BMP180;10584;50.854;12.902;2023-09-30T08:40:21;99093.00;;;14.60
20848;BMP180;10584;50.854;12.902;2023-09-30T08:45:44;99097.00;;;14.80
20848;BMP180;10584;50.854;12.902;2023-09-30T08:51:24;99101.00;;;14.80
20848;BMP180;10584;50.854;12.902;2023-09-30T08:57:17;99119.00;;;14.90
20848;BMP180;10584;50.854;12.902;2023-09-30T09:02:58;99119.00;;;14.90
20848;BMP180;10584;50.854;12.902;2023-09-30T09:08:39;99118.00;;;14.90
20848;BMP180;10584;50.854;12.902;2023-09-30T09:14:02;99128.00;;;15.00
20848;BMP180;10584;50.854;12.902;2023-09-30T09:19:27;99122.00;;;15.20
20848;BMP180;10584;50.854;12.902;2023-09-30T09:24:52;99117.00;;;15.40
20848;BMP180;10584;50.854;12.902;2023-09-30T09:30:21;99125.00;;;15.50
20848;BMP180;10584;50.854;12.902;2023-09-30T09:35:48;99118.00;;;15.70
20848;BMP180;10584;50.854;12.902;2023-09-30T09:41:29;99122.00;;;16.00
20848;BMP180;10584;50.854;12.902;2023-09-30T09:47:08;99115.00;;;16.10
20848;BMP180;10584;50.854;12.902;2023-09-30T09:52:43;99125.00;;;16.40
20848;BMP180;10584;50.854;12.902;2023-09-30T09:58:28;99121.00;;;16.80
20848;BMP180;10584;50.854;12.902;2023-09-30T10:04:21;99120.00;;;17.20
20848;BMP180;10584;50.854;12.902;2023-09-30T10:10:07;99122.00;;;17.10
20848;BMP180;10584;50.854;12.902;2023-09-30T10:15:56;99119.00;;;17.00
20848;BMP180;10584;50.854;12.902;2023-09-30T10:21:29;99117.00;;;17.10
20848;BMP180;10584;50.854;12.902;2023-09-30T10:33:12;99136.00;;;17.30
20848;BMP180;10584;50.854;12.902;2023-09-30T10:38:52;99141.00;;;17.40
20848;BMP180;10584;50.854;12.902;2023-09-30T10:49:51;99139.00;;;17.40
20848;BMP180;10584;50.854;12.902;2023-09-30T10:55:19;99127.00;;;17.20
20848;BMP180;10584;50.854;12.902;2023-09-30T11:00:52;99127.00;;;17.50
20848;BMP180;10584;50.854;12.902;2023-09-30T11:06:20;99116.00;;;17.90
20848;BMP180;10584;50.854;12.902;2023-09-30T11:11:54;99122.00;;;18.10
20848;BMP180;10584;50.854;12.902;2023-09-30T11:17:44;99123.00;;;18.50
20848;BMP180;10584;50.854;12.902;2023-09-30T11:23:10;99104.00;;;18.50
20848;BMP180;10584;50.854;12.902;2023-09-30T11:28:53;99112.00;;;18.70
20848;BMP180;10584;50.854;12.902;2023-09-30T11:34:35;99121.00;;;18.80
20848;BMP180;10584;50.854;12.902;2023-09-30T11:40:12;99111.00;;;18.90
20848;BMP180;10584;50.854;12.902;2023-09-30T11:45:34;99111.00;;;18.80
20848;BMP180;10584;50.854;12.902;2023-09-30T11:51:01;99106.00;;;19.00
20848;BMP180;10584;50.854;12.902;2023-09-30T11:57:09;99102.00;;;19.00
20848;BMP180;10584;50.854;12.902;2023-09-30T12:02:47;99106.00;;;19.30
20848;BMP180;10584;50.854;12.902;2023-09-30T12:08:26;99099.00;;;19.50
20848;BMP180;10584;50.854;12.902;2023-09-30T12:13:53;99100.00;;;19.40
20848;BMP180;10584;50.854;12.902;2023-09-30T12:19:24;99096.00;;;19.70
20848;BMP180;10584;50.854;12.902;2023-09-30T12:24:50;99094.00;;;19.30
20848;BMP180;10584;50.854;12.902;2023-09-30T12:30:13;99084.00;;;19.70
20848;BMP180;10584;50.854;12.902;2023-09-30T12:35:35;99071.00;;;19.70
20848;BMP180;10584;50.854;12.902;2023-09-30T12:41:00;99070.00;;;19.90
20848;BMP180;10584;50.854;12.902;2023-09-30T12:46:51;99072.00;;;19.80
20848;BMP180;10584;50.854;12.902;2023-09-30T12:52:35;99071.00;;;19.90
20848;BMP180;10584;50.854;12.902;2023-09-30T12:58:12;99063.00;;;19.80
20848;BMP180;10584;50.854;12.902;2023-09-30T13:04:05;99064.00;;;20.00
20848;BMP180;10584;50.854;12.902;2023-09-30T13:09:49;99055.00;;;20.20
20848;BMP180;10584;50.854;12.902;2023-09-30T13:15:11;99065.00;;;20.00
20848;BMP180;10584;50.854;12.902;2023-09-30T13:20:35;99059.00;;;20.00
20848;BMP180;10584;50.854;12.902;2023-09-30T13:26:00;99062.00;;;20.10
20848;BMP180;10584;50.854;12.902;2023-09-30T13:31:49;99059.00;;;20.30
20848;BMP180;10584;50.854;12.902;2023-09-30T13:37:38;99056.00;;;20.40
20848;BMP180;10584;50.854;12.902;2023-09-30T13:43:22;99048.00;;;20.50
20848;BMP180;10584;50.854;12.902;2023-09-30T13:49:01;99050.00;;;20.40
20848;BMP180;10584;50.854;12.902;2023-09-30T13:54:29;99043.00;;;20.60
20848;BMP180;10584;50.854;12.902;2023-09-30T13:59:52;99043.00;;;20.50
20848;BMP180;10584;50.854;12.902;2023-09-30T14:05:21;99040.00;;;20.20
20848;BMP180;10584;50.854;12.902;2023-09-30T14:10:59;99030.00;;;20.10
20848;BMP180;10584;50.854;12.902;2023-09-30T14:17:10;99039.00;;;20.30
20848;BMP180;10584;50.854;12.902;2023-09-30T14:22:56;99037.00;;;20.20
20848;BMP180;10584;50.854;12.902;2023-09-30T14:28:35;99035.00;;;20.20
20848;BMP180;10584;50.854;12.902;2023-09-30T14:34:06;99032.00;;;20.20
20848;BMP180;10584;50.854;12.902;2023-09-30T14:39:33;99043.00;;;20.20
20848;BMP180;10584;50.854;12.902;2023-09-30T14:44:57;99047.00;;;20.10
20848;BMP180;10584;50.854;12.902;2023-09-30T14:50:18;99047.00;;;19.90
20848;BMP180;10584;50.854;12.902;2023-09-30T14:55:40;99040.00;;;20.10
20848;BMP180;10584;50.854;12.902;2023-09-30T15:01:07;99048.00;;;20.10
20848;BMP180;10584;50.854;12.902;2023-09-30T15:06:44;99035.00;;;20.10
20848;BMP180;10584;50.854;12.902;2023-09-30T15:12:23;99031.00;;;20.10
20848;BMP180;10584;50.854;12.902;2023-09-30T15:18:03;99035.00;;;20.00
20848;BMP180;10584;50.854;12.902;2023-09-30T15:23:46;99029.00;;;19.80
20848;BMP180;10584;50.854;12.902;2023-09-30T15:29:19;99033.00;;;20.10
20848;BMP180;10584;50.854;12.902;2023-09-30T15:34:47;99036.00;;;20.10
20848;BMP180;10584;50.854;12.902;2023-09-30T15:40:09;99037.00;;;20.10
20848;BMP180;10584;50.854;12.902;2023-09-30T15:45:31;99037.00;;;20.00
20848;BMP180;10584;50.854;12.902;2023-09-30T15:50:59;99028.00;;;19.90
20848;BMP180;10584;50.854;12.902;2023-09-30T15:56:49;99031.00;;;19.90
20848;BMP180;10584;50.854;12.902;2023-09-30T16:02:35;99044.00;;;19.70
20848;BMP180;10584;50.854;12.902;2023-09-30T16:08:25;99044.00;;;19.30
20848;BMP180;10584;50.854;12.902;2023-09-30T16:13:56;99031.00;;;18.90
20848;BMP180;10584;50.854;12.902;2023-09-30T16:19:18;99032.00;;;18.60
20848;BMP180;10584;50.854;12.902;2023-09-30T16:24:40;99033.00;;;18.30
20848;BMP180;10584;50.854;12.902;2023-09-30T16:30:02;99029.00;;;17.80
20848;BMP180;10584;50.854;12.902;2023-09-30T16:35:24;99052.00;;;17.60
20848;BMP180;10584;50.854;12.902;2023-09-30T16:40:57;99035.00;;;17.20
20848;BMP180;10584;50.854;12.902;2023-09-30T16:46:30;99028.00;;;16.90
20848;BMP180;10584;50.854;12.902;2023-09-30T16:52:11;99037.00;;;16.50
20848;BMP180;10584;50.854;12.902;2023-09-30T16:57:44;99041.00;;;16.10
20848;BMP180;10584;50.854;12.902;2023-09-30T17:03:37;99053.00;;;15.70
20848;BMP180;10584;50.854;12.902;2023-09-30T17:09:06;99052.00;;;15.40
20848;BMP180;10584;50.854;12.902;2023-09-30T17:14:28;99044.00;;;15.20
20848;BMP180;10584;50.854;12.902;2023-09-30T17:19:51;99050.00;;;14.90
20848;BMP180;10584;50.854;12.902;2023-09-30T17:25:12;99058.00;;;14.60
20848;BMP180;10584;50.854;12.902;2023-09-30T17:30:35;99062.00;;;14.30
20848;BMP180;10584;50.854;12.902;2023-09-30T17:36:11;99065.00;;;14.00
20848;BMP180;10584;50.854;12.902;2023-09-30T17:41:53;99062.00;;;13.70
20848;BMP180;10584;50.854;12.902;2023-09-30T17:47:17;99057.00;;;13.50
20848;BMP180;10584;50.854;12.902;2023-09-30T17:52:56;99058.00;;;13.20
20848;BMP180;10584;50.854;12.902;2023-09-30T17:58:31;99067.00;;;13.00
20848;BMP180;10584;50.854;12.902;2023-09-30T18:04:02;99072.00;;;12.70
20848;BMP180;10584;50.854;12.902;2023-09-30T18:09:35;99074.00;;;12.50
20848;BMP180;10584;50.854;12.902;2023-09-30T18:14:56;99062.00;;;12.30
20848;BMP180;10584;50.854;12.902;2023-09-30T18:20:18;99065.00;;;12.10
20848;BMP180;10584;50.854;12.902;2023-09-30T18:25:41;99061.00;;;11.90
20848;BMP180;10584;50.854;12.902;2023-09-30T18:31:22;99073.00;;;11.60
20848;BMP180;10584;50.854;12.902;2023-09-30T18:37:06;99066.00;;;11.40
20848;BMP180;10584;50.854;12.902;2023-09-30T18:42:46;99063.00;;;11.20
20848;BMP180;10584;50.854;12.902;2023-09-30T18:48:07;99068.00;;;11.00
20848;BMP180;10584;50.854;12.902;2023-09-30T18:53:41;99072.00;;;10.80
20848;BMP180;10584;50.854;12.902;2023-09-30T18:59:10;99066.00;;;10.70
20848;BMP180;10584;50.854;12.902;2023-09-30T19:04:43;99070.00;;;10.50
20848;BMP180;10584;50.854;12.902;2023-09-30T19:10:30;99068.00;;;10.30
20848;BMP180;10584;50.854;12.902;2023-09-30T19:16:30;99055.00;;;10.20
20848;BMP180;10584;50.854;12.902;2023-09-30T19:22:01;99063.00;;;10.00
20848;BMP180;10584;50.854;12.902;2023-09-30T19:27:42;99062.00;;;9.90
20848;BMP180;10584;50.854;12.902;2023-09-30T19:33:20;99060.00;;;9.70
20848;BMP180;10584;50.854;12.902;2023-09-30T19:38:56;99049.00;;;9.70
20848;BMP180;10584;50.854;12.902;2023-09-30T19:44:24;99047.00;;;9.60
20848;BMP180;10584;50.854;12.902;2023-09-30T19:49:45;99038.00;;;9.50
20848;BMP180;10584;50.854;12.902;2023-09-30T19:55:08;99052.00;;;9.40
20848;BMP180;10584;50.854;12.902;2023-09-30T20:00:30;99049.00;;;9.30
20848;BMP180;10584;50.854;12.902;2023-09-30T20:05:57;99051.00;;;9.20
20848;BMP180;10584;50.854;12.902;2023-09-30T20:11:44;99060.00;;;9.10
20848;BMP180;10584;50.854;12.902;2023-09-30T20:17:23;99039.00;;;9.00
20848;BMP180;10584;50.854;12.902;2023-09-30T20:23:07;99041.00;;;9.00
20848;BMP180;10584;50.854;12.902;2023-09-30T20:28:44;99049.00;;;8.90
20848;BMP180;10584;50.854;12.902;2023-09-30T20:34:24;99043.00;;;8.80
20848;BMP180;10584;50.854;12.902;2023-09-30T20:39:46;99044.00;;;8.80
20848;BMP180;10584;50.854;12.902;2023-09-30T20:45:09;99041.00;;;8.70
20848;BMP180;10584;50.854;12.902;2023-09-30T20:50:31;99035.00;;;8.70
20848;BMP180;10584;50.854;12.902;2023-09-30T20:55:58;99028.00;;;8.60
20848;BMP180;10584;50.854;12.902;2023-09-30T21:01:55;99034.00;;;8.50
20848;BMP180;10584;50.854;12.902;2023-09-30T21:07:35;99027.00;;;8.50
20848;BMP180;10584;50.854;12.902;2023-09-30T21:13:02;99025.00;;;8.40
20848;BMP180;10584;50.854;12.902;2023-09-30T21:18:29;99034.00;;;8.40
20848;BMP180;10584;50.854;12.902;2023-09-30T21:23:56;99043.00;;;8.30
20848;BMP180;10584;50.854;12.902;2023-09-30T21:29:23;99026.00;;;8.30
20848;BMP180;10584;50.854;12.902;2023-09-30T21:34:45;99036.00;;;8.20
20848;BMP180;10584;50.854;12.902;2023-09-30T21:40:07;99038.00;;;8.20
20848;BMP180;10584;50.854;12.902;2023-09-30T21:45:28;99037.00;;;8.10
20848;BMP180;10584;50.854;12.902;2023-09-30T21:50:58;99040.00;;;8.10
20848;BMP180;10584;50.854;12.902;2023-09-30T21:56:32;99044.00;;;8.00
20848;BMP180;10584;50.854;12.902;2023-09-30T22:01:53;99044.00;;;8.10
20848;BMP180;10584;50.854;12.902;2023-09-30T22:07:15;99052.00;;;8.10
20848;BMP180;10584;50.854;12.902;2023-09-30T22:12:37;99053.00;;;8.10
20848;BMP180;10584;50.854;12.902;2023-09-30T22:17:59;99056.00;;;8.10
20848;BMP180;10584;50.854;12.902;2023-09-30T22:23:24;99060.00;;;8.10
20848;BMP180;10584;50.854;12.902;2023-09-30T22:28:46;99062.00;;;8.10
20848;BMP180;10584;50.854;12.902;2023-09-30T22:34:07;99053.00;;;8.10
20848;BMP180;10584;50.854;12.902;2023-09-30T22:39:28;99040.00;;;8.10
20848;BMP180;10584;50.854;12.902;2023-09-30T22:44:50;99038.00;;;8.20
20848;BMP180;10584;50.854;12.902;2023-09-30T22:50:13;99039.00;;;8.20
20848;BMP180;10584;50.854;12.902;2023-09-30T22:55:36;99036.00;;;8.30
20848;BMP180;10584;50.854;12.902;2023-09-30T23:00:58;99048.00;;;8.40
20848;BMP180;10584;50.854;12.902;2023-09-30T23:06:22;99036.00;;;8.50
20848;BMP180;10584;50.854;12.902;2023-09-30T23:11:44;99041.00;;;8.60
20848;BMP180;10584;50.854;12.902;2023-09-30T23:17:05;99036.00;;;8.60
20848;BMP180;10584;50.854;12.902;2023-09-30T23:22:27;99039.00;;;8.60
20848;BMP180;10584;50.854;12.902;2023-09-30T23:27:48;99030.00;;;8.70
20848;BMP180;10584;50.854;12.902;2023-09-30T23:33:10;99021.00;;;8.70
20848;BMP180;10584;50.854;12.902;2023-09-30T23:38:32;99036.00;;;8.70
20848;BMP180;10584;50.854;12.902;2023-09-30T23:43:54;99036.00;;;8.70
20848;BMP180;10584;50.854;12.902;2023-09-30T23:49:16;99039.00;;;8.70
20848;BMP180;10584;50.854;12.902;2023-09-30T23:54:37;99028.00;;;8.70
20848;BMP180;10584;50.854;12.902;2023-09-30T23:59:59;99026.00;;;8.80
